createdAt,value
2022-12-14T00:01:49.212Z,29.02
2022-12-14T00:04:17.534Z,28.17
2022-12-14T00:06:45.112Z,27.20
2022-12-14T00:09:12.385Z,26.55
2022-12-14T00:11:39.552Z,27.42
2022-12-14T00:14:06.965Z,27.98
2022-12-14T00:16:36.104Z,27.88
2022-12-14T00:19:05.466Z,28.17
2022-12-14T00:21:32.882Z,26.88
2022-12-14T00:24:00.502Z,28.45
2022-12-14T00:26:32.668Z,27.27
2022-12-14T00:29:02.023Z,26.27
2022-12-14T00:31:31.239Z,27.25
2022-12-14T00:33:59.324Z,26.75
2022-12-14T00:36:27.317Z,27.58
2022-12-14T00:38:54.492Z,27.40
2022-12-14T00:41:21.849Z,27.50
2022-12-14T00:43:49.838Z,27.10
2022-12-14T00:46:18.285Z,28.58
2022-12-14T00:48:45.723Z,27.65
2022-12-14T00:51:14.758Z,27.25
2022-12-14T00:53:44.352Z,29.50
2022-12-14T00:56:11.924Z,29.48
2022-12-14T00:58:39.744Z,28.48
2022-12-14T01:01:14.822Z,27.95
2022-12-14T01:03:42.671Z,28.00
2022-12-14T01:06:22.375Z,28.95
2022-12-14T01:08:50.056Z,28.13
2022-12-14T01:11:17.577Z,29.75
2022-12-14T01:13:45.082Z,29.10
2022-12-14T01:16:17.941Z,29.80
2022-12-14T01:18:45.502Z,29.83
2022-12-14T01:21:15.917Z,30.25
2022-12-14T01:23:44.838Z,32.28
2022-12-14T01:26:14.227Z,31.35
2022-12-14T01:28:41.985Z,28.30
2022-12-14T01:31:18.331Z,29.15
2022-12-14T01:33:47.139Z,28.33
2022-12-14T01:36:25.318Z,28.48
2022-12-14T01:38:56.706Z,29.60
2022-12-14T01:41:40.930Z,25.88
2022-12-14T01:46:44.239Z,24.88
2022-12-14T01:49:30.660Z,25.75
2022-12-14T01:52:33.448Z,25.20
2022-12-14T01:55:15.678Z,25.38
2022-12-14T01:58:04.791Z,25.25
2022-12-14T02:00:32.743Z,25.27
2022-12-14T02:03:12.653Z,27.17
2022-12-14T02:05:48.445Z,25.15
2022-12-14T02:08:18.550Z,25.00
2022-12-14T02:10:47.739Z,26.95
2022-12-14T02:13:24.085Z,25.15
2022-12-14T02:15:52.780Z,25.75
2022-12-14T02:18:27.911Z,26.02
2022-12-14T02:21:36.720Z,24.73
2022-12-14T02:24:37.277Z,25.67
2022-12-14T02:27:29.088Z,24.92
2022-12-14T02:30:02.677Z,25.13
2022-12-14T02:32:54.906Z,25.95
2022-12-14T02:35:56.725Z,25.30
2022-12-14T02:38:42.121Z,26.05
2022-12-14T02:41:40.271Z,26.50
2022-12-14T02:44:39.792Z,27.65
2022-12-14T02:47:22.588Z,29.10
2022-12-14T02:50:05.569Z,27.83
2022-12-14T02:55:42.043Z,26.48
2022-12-14T02:58:25.952Z,27.35
2022-12-14T03:00:56.292Z,26.40
2022-12-14T03:03:24.232Z,28.05
2022-12-14T03:06:01.291Z,26.58
2022-12-14T03:08:34.292Z,25.35
2022-12-14T03:11:06.925Z,25.10
2022-12-14T03:13:49.663Z,25.48
2022-12-14T03:16:24.939Z,24.40
2022-12-14T03:19:04.134Z,24.23
2022-12-14T03:21:40.941Z,23.80
2022-12-14T03:24:17.072Z,24.30
2022-12-14T03:26:56.591Z,23.95
2022-12-14T03:29:38.215Z,24.33
2022-12-14T03:32:19.019Z,25.98
2022-12-14T03:35:04.677Z,25.58
2022-12-14T03:37:41.782Z,24.90
2022-12-14T03:40:13.275Z,30.23
2022-12-14T03:42:58.494Z,38.70
2022-12-14T03:45:44.799Z,32.92
2022-12-14T03:48:31.878Z,30.92
2022-12-14T03:51:08.639Z,31.42
2022-12-14T03:54:12.675Z,28.60
2022-12-14T03:56:58.077Z,31.67
2022-12-14T04:00:01.001Z,34.85
2022-12-14T04:02:45.235Z,27.55
2022-12-14T04:05:25.053Z,29.15
2022-12-14T04:08:22.775Z,25.52
2022-12-14T04:11:14.008Z,23.67
2022-12-14T04:14:15.063Z,24.45
2022-12-14T04:17:08.166Z,23.65
2022-12-14T04:19:48.922Z,25.55
2022-12-14T04:22:30.052Z,24.92
2022-12-14T04:25:21.585Z,23.75
2022-12-14T04:28:04.069Z,25.30
2022-12-14T04:30:38.079Z,26.10
2022-12-14T04:33:35.037Z,25.25
2022-12-14T04:36:04.184Z,24.02
2022-12-14T04:38:39.213Z,25.48
2022-12-14T04:41:14.638Z,25.27
2022-12-14T04:43:49.046Z,25.27
2022-12-14T04:46:25.362Z,24.30
2022-12-14T04:49:08.788Z,24.58
2022-12-14T04:52:03.437Z,24.38
2022-12-14T04:54:48.004Z,24.42
2022-12-14T04:59:56.172Z,23.17
2022-12-14T05:02:45.397Z,23.33
2022-12-14T05:05:25.471Z,23.63
2022-12-14T05:08:30.211Z,23.33
2022-12-14T05:11:30.535Z,22.42
2022-12-14T05:13:56.540Z,23.45
2022-12-14T05:16:25.101Z,25.77
2022-12-14T05:18:52.403Z,26.45
2022-12-14T05:21:38.134Z,29.50
2022-12-14T05:24:05.719Z,34.47
2022-12-14T05:26:32.886Z,35.95
2022-12-14T05:29:00.121Z,31.10
2022-12-14T05:31:27.305Z,25.80
2022-12-14T05:33:54.628Z,24.25
2022-12-14T05:36:22.484Z,22.50
2022-12-14T05:38:49.663Z,24.60
2022-12-14T05:41:16.888Z,24.75
2022-12-14T05:43:44.055Z,24.25
2022-12-14T05:46:12.103Z,24.45
2022-12-14T05:48:39.417Z,25.75
2022-12-14T05:51:09.834Z,26.58
2022-12-14T05:53:38.485Z,24.40
2022-12-14T05:56:08.010Z,24.35
2022-12-14T05:58:36.623Z,24.85
2022-12-14T06:01:14.057Z,23.35
2022-12-14T06:03:45.969Z,22.90
2022-12-14T06:06:14.454Z,23.60
2022-12-14T06:08:45.273Z,23.83
2022-12-14T06:11:22.381Z,22.63
2022-12-14T06:13:50.024Z,24.65
2022-12-14T06:16:26.704Z,23.75
2022-12-14T06:18:57.931Z,22.33
2022-12-14T06:21:35.562Z,23.85
2022-12-14T06:24:04.310Z,23.85
2022-12-14T06:26:34.176Z,24.95
2022-12-14T06:29:01.539Z,23.83
2022-12-14T06:31:32.140Z,23.70
2022-12-14T06:34:02.645Z,24.05
2022-12-14T06:36:33.985Z,23.38
2022-12-14T06:39:07.005Z,22.73
2022-12-14T06:41:34.965Z,23.77
2022-12-14T06:44:05.987Z,23.00
2022-12-14T06:46:34.621Z,23.50
2022-12-14T06:49:03.209Z,23.25
2022-12-14T06:51:30.352Z,23.20
2022-12-14T06:53:58.488Z,23.73
2022-12-14T06:56:27.833Z,23.85
2022-12-14T06:58:56.172Z,22.75
2022-12-14T07:01:25.515Z,22.83
2022-12-14T07:03:56.715Z,23.17
2022-12-14T07:06:27.133Z,23.50
2022-12-14T07:08:59.012Z,26.45
2022-12-14T07:11:28.452Z,32.80
2022-12-14T07:13:56.729Z,32.53
2022-12-14T07:16:26.821Z,24.80
2022-12-14T07:18:54.352Z,23.75
2022-12-14T07:21:22.790Z,21.40
2022-12-14T07:23:52.320Z,24.40
2022-12-14T07:26:25.847Z,22.65
2022-12-14T07:28:54.492Z,23.05
2022-12-14T07:31:27.518Z,23.13
2022-12-14T07:33:58.214Z,25.17
2022-12-14T07:36:28.258Z,24.20
2022-12-14T07:38:56.698Z,23.52
2022-12-14T07:41:31.044Z,23.65
2022-12-14T07:44:00.740Z,22.65
2022-12-14T07:46:30.327Z,23.92
2022-12-14T07:48:59.648Z,22.65
2022-12-14T07:51:30.761Z,23.38
2022-12-14T07:54:01.578Z,25.92
2022-12-14T07:56:34.291Z,23.00
2022-12-14T07:59:04.304Z,24.05
2022-12-14T08:01:38.043Z,23.95
2022-12-14T08:04:18.328Z,24.75
2022-12-14T08:06:47.131Z,28.00
2022-12-14T08:09:15.619Z,25.70
2022-12-14T08:11:42.815Z,23.38
2022-12-14T08:14:19.631Z,23.35
2022-12-14T08:16:48.832Z,25.30
2022-12-14T08:19:18.224Z,24.65
2022-12-14T08:21:45.812Z,24.65
2022-12-14T08:24:14.611Z,24.40
2022-12-14T08:26:41.826Z,23.75
2022-12-14T08:29:09.283Z,25.08
2022-12-14T08:31:36.642Z,22.27
2022-12-14T08:34:05.120Z,23.80
2022-12-14T08:36:34.451Z,23.70
2022-12-14T08:39:06.374Z,23.00
2022-12-14T08:41:34.704Z,24.47
2022-12-14T08:44:03.929Z,23.98
2022-12-14T08:46:33.884Z,24.30
2022-12-14T08:49:01.341Z,23.65
2022-12-14T08:51:29.202Z,22.98
2022-12-14T08:53:58.197Z,23.15
2022-12-14T08:56:27.857Z,26.33
2022-12-14T08:58:56.634Z,27.10
2022-12-14T09:01:32.897Z,25.33
2022-12-14T09:04:07.726Z,24.95
2022-12-14T09:06:38.762Z,24.95
2022-12-14T09:09:15.728Z,24.45
2022-12-14T09:11:45.210Z,24.50
2022-12-14T09:14:12.613Z,23.98
2022-12-14T09:16:40.272Z,24.15
2022-12-14T09:19:07.609Z,24.75
2022-12-14T09:21:34.941Z,23.65
2022-12-14T09:24:02.310Z,24.88
2022-12-14T09:26:29.807Z,25.02
2022-12-14T09:28:58.053Z,22.80
2022-12-14T09:31:28.064Z,24.30
2022-12-14T09:33:55.596Z,28.77
2022-12-14T09:36:27.582Z,25.15
2022-12-14T09:38:57.316Z,24.42
2022-12-14T09:41:36.270Z,25.65
2022-12-14T09:44:43.917Z,23.98
2022-12-14T09:47:27.741Z,24.48
2022-12-14T09:50:03.680Z,24.48
2022-12-14T09:52:46.668Z,25.25
2022-12-14T09:58:17.164Z,24.00
2022-12-14T10:00:54.940Z,25.75
2022-12-14T10:03:54.028Z,26.10
2022-12-14T10:06:44.802Z,25.98
2022-12-14T10:09:21.737Z,35.22
2022-12-14T10:12:16.370Z,30.73
2022-12-14T10:15:18.861Z,28.23
2022-12-14T10:18:58.811Z,26.70
2022-12-14T10:21:37.762Z,27.33
2022-12-14T10:24:12.518Z,26.50
2022-12-14T10:26:50.328Z,27.50
2022-12-14T10:29:32.258Z,28.85
2022-12-14T10:32:22.465Z,28.10
2022-12-14T10:34:51.575Z,27.88
2022-12-14T10:37:35.533Z,28.85
2022-12-14T10:40:15.523Z,28.50
2022-12-14T10:42:59.770Z,28.73
2022-12-14T10:46:17.985Z,27.80
2022-12-14T10:48:58.940Z,27.88
2022-12-14T10:52:08.656Z,29.67
2022-12-14T10:54:45.184Z,30.60
2022-12-14T10:57:26.334Z,32.08
2022-12-14T11:00:10.936Z,31.88
2022-12-14T11:02:43.780Z,32.80
2022-12-14T11:05:32.513Z,30.50
2022-12-14T11:08:08.089Z,31.05
2022-12-14T11:10:39.530Z,30.85
2022-12-14T11:13:18.858Z,31.80
2022-12-14T11:15:50.846Z,30.77
2022-12-14T11:18:31.347Z,30.30
2022-12-14T11:21:05.579Z,29.63
2022-12-14T11:23:38.309Z,31.58
2022-12-14T11:29:21.483Z,29.70
2022-12-14T11:31:53.901Z,29.83
2022-12-14T11:34:41.364Z,33.05
2022-12-14T11:37:23.303Z,30.15
2022-12-14T11:39:55.446Z,32.40
2022-12-14T11:42:24.556Z,31.42
2022-12-14T11:44:52.937Z,30.75
2022-12-14T11:47:26.461Z,30.67
2022-12-14T11:49:56.702Z,31.48
2022-12-14T11:52:37.477Z,29.55
2022-12-14T11:55:23.010Z,30.10
2022-12-14T11:58:00.092Z,30.13
2022-12-14T12:00:47.520Z,36.45
2022-12-14T12:03:33.388Z,31.17
2022-12-14T12:06:08.889Z,28.95
2022-12-14T12:08:40.145Z,28.65
2022-12-14T12:11:20.277Z,30.55
2022-12-14T12:13:56.749Z,29.40
2022-12-14T12:16:27.862Z,28.15
2022-12-14T12:19:12.837Z,26.60
2022-12-14T12:21:44.671Z,27.25
2022-12-14T12:24:30.445Z,27.90
2022-12-14T12:27:11.861Z,27.52
2022-12-14T12:29:57.279Z,27.73
2022-12-14T12:32:27.482Z,27.65
2022-12-14T12:35:11.816Z,28.05
2022-12-14T12:38:00.295Z,28.83
2022-12-14T12:40:52.030Z,28.20
2022-12-14T12:43:30.683Z,28.05
2022-12-14T12:46:18.318Z,28.20
2022-12-14T12:48:50.684Z,27.70
2022-12-14T12:51:40.053Z,27.98
2022-12-14T12:54:18.638Z,28.73
2022-12-14T12:56:57.002Z,28.55
2022-12-14T12:59:37.965Z,27.98
2022-12-14T13:02:30.096Z,28.15
2022-12-14T13:05:16.546Z,30.70
2022-12-14T13:08:27.567Z,29.95
2022-12-14T13:11:24.941Z,28.08
2022-12-14T13:16:30.956Z,28.05
2022-12-14T13:19:48.282Z,29.13
2022-12-14T13:22:04.936Z,28.95
2022-12-14T13:24:33.423Z,28.90
2022-12-14T13:27:18.549Z,28.50
2022-12-14T13:30:13.964Z,30.40
2022-12-14T13:33:51.072Z,29.30
2022-12-14T13:36:34.228Z,28.73
2022-12-14T13:39:10.313Z,29.80
2022-12-14T13:42:16.867Z,30.15
2022-12-14T13:45:00.299Z,31.10
2022-12-14T13:47:45.778Z,31.52
2022-12-14T13:50:43.326Z,32.80
2022-12-14T13:53:48.509Z,30.35
2022-12-14T13:56:33.864Z,32.75
2022-12-14T13:59:30.277Z,33.50
2022-12-14T14:02:01.718Z,32.55
2022-12-14T14:04:31.754Z,32.47
2022-12-14T14:07:23.772Z,31.85
2022-12-14T14:09:59.319Z,31.50
2022-12-14T14:12:43.911Z,31.48
2022-12-14T14:15:38.188Z,32.70
2022-12-14T14:18:23.358Z,31.40
2022-12-14T14:21:12.293Z,32.33
2022-12-14T14:24:17.602Z,32.22
2022-12-14T14:27:19.834Z,32.67
2022-12-14T14:29:49.413Z,32.50
2022-12-14T14:32:40.307Z,33.70
2022-12-14T14:35:35.715Z,29.98
2022-12-14T14:38:25.351Z,32.97
2022-12-14T14:41:15.954Z,33.20
2022-12-14T14:43:53.344Z,34.45
2022-12-14T14:46:39.047Z,35.08
2022-12-14T14:49:27.358Z,37.38
2022-12-14T14:51:55.549Z,39.35
2022-12-14T14:55:11.203Z,36.70
2022-12-14T14:57:56.268Z,36.50
2022-12-14T15:00:23.630Z,35.60
2022-12-14T15:02:55.577Z,34.90
2022-12-14T15:05:44.481Z,33.37
2022-12-14T15:08:37.156Z,32.65
2022-12-14T15:11:14.961Z,32.70
2022-12-14T15:13:59.314Z,35.17
2022-12-14T15:16:34.083Z,35.63
2022-12-14T15:19:33.365Z,39.30
2022-12-14T15:22:06.346Z,38.80
2022-12-14T15:24:45.935Z,39.13
2022-12-14T15:27:32.095Z,38.05
2022-12-14T15:30:19.567Z,36.85
2022-12-14T15:32:57.013Z,38.63
2022-12-14T15:35:30.634Z,41.65
2022-12-14T15:38:04.441Z,41.58
2022-12-14T15:40:33.131Z,37.70
2022-12-14T15:43:19.182Z,39.67
2022-12-14T15:45:53.104Z,43.38
2022-12-14T15:48:34.954Z,40.38
2022-12-14T15:51:07.599Z,39.63
2022-12-14T15:53:45.038Z,37.95
2022-12-14T15:56:43.887Z,37.67
2022-12-14T15:59:21.464Z,36.80
2022-12-14T16:02:01.414Z,38.83
2022-12-14T16:04:32.411Z,38.25
2022-12-14T16:07:18.020Z,38.20
2022-12-14T16:10:00.300Z,43.33
2022-12-14T16:12:45.719Z,48.53
2022-12-14T16:15:17.775Z,52.67
2022-12-14T16:17:46.361Z,57.17
2022-12-14T16:20:22.284Z,52.00
2022-12-14T16:23:14.242Z,41.70
2022-12-14T16:26:00.825Z,36.97
2022-12-14T16:28:35.181Z,36.40
2022-12-14T16:31:21.395Z,39.63
2022-12-14T16:34:08.397Z,43.67
2022-12-14T16:36:36.946Z,44.28
2022-12-14T16:39:17.931Z,43.55
2022-12-14T16:41:58.363Z,43.15
2022-12-14T16:44:31.649Z,40.88
2022-12-14T16:47:04.807Z,40.35
2022-12-14T16:49:39.217Z,39.13
2022-12-14T16:52:26.109Z,40.40
2022-12-14T16:55:13.185Z,39.17
2022-12-14T16:57:49.140Z,39.92
2022-12-14T17:00:34.379Z,39.20
2022-12-14T17:03:19.526Z,36.95
2022-12-14T17:05:56.679Z,36.63
2022-12-14T17:08:23.886Z,36.13
2022-12-14T17:10:51.474Z,37.30
2022-12-14T17:13:18.815Z,35.42
2022-12-14T17:16:04.266Z,35.90
2022-12-14T17:18:36.811Z,34.72
2022-12-14T17:21:05.936Z,38.95
2022-12-14T17:23:37.235Z,39.55
2022-12-14T17:26:04.774Z,38.40
2022-12-14T17:28:34.533Z,38.75
2022-12-14T17:31:03.253Z,38.78
2022-12-14T17:33:31.845Z,42.22
2022-12-14T17:35:59.670Z,42.70
2022-12-14T17:38:26.940Z,48.00
2022-12-14T17:40:54.543Z,43.33
2022-12-14T17:43:27.655Z,45.85
2022-12-14T17:45:55.549Z,49.78
2022-12-14T17:48:22.890Z,50.60
2022-12-14T17:50:51.259Z,53.33
2022-12-14T17:53:27.945Z,56.10
2022-12-14T17:55:55.760Z,58.80
2022-12-14T17:58:23.131Z,61.65
2022-12-14T18:01:02.884Z,58.45
2022-12-14T18:03:33.701Z,58.60
2022-12-14T18:06:03.594Z,58.13
2022-12-14T18:08:30.746Z,60.20
2022-12-14T18:11:02.221Z,63.45
2022-12-14T18:13:33.357Z,62.15
2022-12-14T18:16:01.236Z,57.67
2022-12-14T18:18:29.506Z,54.25
2022-12-14T18:21:01.450Z,48.90
2022-12-14T18:23:30.936Z,45.40
2022-12-14T18:26:00.276Z,42.05
2022-12-14T18:28:27.436Z,49.88
2022-12-14T18:31:01.724Z,55.00
2022-12-14T18:33:29.855Z,54.03
2022-12-14T18:35:57.686Z,52.38
2022-12-14T18:38:25.930Z,51.58
2022-12-14T18:40:58.509Z,51.53
2022-12-14T18:43:28.807Z,53.28
2022-12-14T18:45:56.953Z,53.63
2022-12-14T18:48:25.143Z,52.63
2022-12-14T18:50:54.841Z,56.30
2022-12-14T18:53:24.420Z,62.22
2022-12-14T18:55:52.724Z,52.03
2022-12-14T18:58:26.947Z,49.72
2022-12-14T19:00:58.309Z,60.90
2022-12-14T19:03:29.201Z,46.00
2022-12-14T19:06:34.851Z,42.33
2022-12-14T19:08:53.776Z,42.80
2022-12-14T19:11:33.396Z,60.85
2022-12-14T19:14:01.379Z,45.25
2022-12-14T19:16:29.167Z,41.15
2022-12-14T19:18:56.850Z,36.22
2022-12-14T19:21:26.123Z,36.40
2022-12-14T19:23:53.670Z,37.63
2022-12-14T19:26:21.204Z,41.50
2022-12-14T19:28:48.868Z,43.78
2022-12-14T19:31:16.255Z,45.17
2022-12-14T19:33:43.572Z,42.10
2022-12-14T19:36:11.218Z,54.22
2022-12-14T19:38:38.515Z,64.90
2022-12-14T19:41:10.945Z,54.97
2022-12-14T19:43:38.760Z,54.03
2022-12-14T19:46:11.565Z,57.97
2022-12-14T19:48:38.919Z,67.88
2022-12-14T19:51:10.396Z,62.78
2022-12-14T19:53:39.843Z,58.83
2022-12-14T19:56:07.338Z,52.88
2022-12-14T19:58:34.761Z,55.13
2022-12-14T20:01:02.178Z,54.40
2022-12-14T20:03:30.052Z,55.10
2022-12-14T20:05:59.674Z,56.38
2022-12-14T20:08:29.400Z,56.45
2022-12-14T20:10:57.613Z,56.58
2022-12-14T20:13:27.259Z,61.00
2022-12-14T20:16:01.867Z,56.97
2022-12-14T20:18:31.423Z,55.60
2022-12-14T20:21:04.911Z,58.97
2022-12-14T20:23:35.197Z,56.33
2022-12-14T20:26:06.174Z,49.58
2022-12-14T20:28:33.631Z,46.97
2022-12-14T20:31:01.317Z,46.92
2022-12-14T20:33:30.808Z,53.50
2022-12-14T20:35:59.270Z,53.75
2022-12-14T20:38:27.693Z,54.20
2022-12-14T20:40:55.304Z,55.22
2022-12-14T20:43:22.653Z,57.90
2022-12-14T20:45:49.835Z,62.05
2022-12-14T20:48:17.023Z,64.68
2022-12-14T20:50:44.308Z,64.75
2022-12-14T20:53:18.583Z,59.63
2022-12-14T20:55:45.712Z,55.72
2022-12-14T20:58:12.853Z,51.90
2022-12-14T21:00:40.048Z,52.03
2022-12-14T21:03:07.417Z,51.38
2022-12-14T21:05:41.077Z,52.95
2022-12-14T21:08:09.031Z,49.75
2022-12-14T21:10:36.359Z,60.33
2022-12-14T21:13:07.675Z,63.28
2022-12-14T21:15:35.622Z,50.30
2022-12-14T21:18:03.042Z,49.83
2022-12-14T21:20:30.366Z,49.30
2022-12-14T21:22:57.622Z,54.13
2022-12-14T21:25:24.871Z,52.13
2022-12-14T21:27:52.103Z,49.60
2022-12-14T21:30:19.475Z,49.35
2022-12-14T21:32:46.686Z,49.65
2022-12-14T21:35:17.412Z,52.83
2022-12-14T21:37:44.833Z,51.83
2022-12-14T21:40:32.369Z,53.88
2022-12-14T21:42:59.526Z,55.03
2022-12-14T21:45:26.773Z,55.67
2022-12-14T21:47:53.966Z,61.13
2022-12-14T21:50:21.138Z,60.35
2022-12-14T21:52:48.379Z,60.55
2022-12-14T21:55:15.755Z,62.00
2022-12-14T21:58:01.750Z,58.30
2022-12-14T22:00:29.073Z,57.70
2022-12-14T22:02:56.376Z,60.47
2022-12-14T22:05:23.791Z,55.40
2022-12-14T22:07:51.803Z,56.38
2022-12-14T22:10:24.608Z,57.97
2022-12-14T22:12:52.793Z,58.90
2022-12-14T22:15:19.992Z,56.50
2022-12-14T22:17:48.748Z,58.92
2022-12-14T22:20:16.173Z,58.53
2022-12-14T22:22:43.487Z,57.42
2022-12-14T22:25:10.737Z,57.85
2022-12-14T22:27:38.111Z,60.03
2022-12-14T22:30:06.367Z,60.25
2022-12-14T22:32:33.824Z,60.20
2022-12-14T22:35:01.075Z,56.95
2022-12-14T22:37:29.305Z,55.88
2022-12-14T22:39:56.472Z,53.65
2022-12-14T22:42:23.772Z,52.22
2022-12-14T22:44:51.146Z,49.15
2022-12-14T22:47:18.629Z,50.35
2022-12-14T22:49:45.846Z,47.53
2022-12-14T22:52:13.019Z,47.97
2022-12-14T22:54:40.644Z,46.55
2022-12-14T22:57:17.311Z,48.03
2022-12-14T22:59:55.905Z,47.88
2022-12-14T23:02:23.824Z,46.58
2022-12-14T23:04:51.372Z,47.03
2022-12-14T23:07:18.904Z,46.63
2022-12-14T23:10:04.849Z,45.28
2022-12-14T23:12:50.870Z,45.88
2022-12-14T23:15:36.784Z,45.40
2022-12-14T23:18:24.986Z,43.90
2022-12-14T23:21:12.331Z,44.47
2022-12-14T23:24:01.387Z,40.08
2022-12-14T23:26:48.116Z,39.10
2022-12-14T23:29:34.301Z,37.03
2022-12-14T23:32:20.081Z,37.25
2022-12-14T23:35:06.175Z,39.20
2022-12-14T23:37:52.122Z,37.20
2022-12-14T23:40:37.864Z,38.13
2022-12-14T23:43:33.435Z,39.83
2022-12-14T23:46:21.965Z,42.22
2022-12-14T23:49:12.087Z,41.22
2022-12-14T23:52:01.336Z,39.53
2022-12-14T23:54:47.187Z,39.35
2022-12-14T23:57:33.374Z,37.72
